createdAt,value
2022-11-18T00:03:32.197Z,20.10
2022-11-18T00:06:38.512Z,20.00
2022-11-18T00:13:06.697Z,21.60
2022-11-18T00:16:14.396Z,18.10
2022-11-18T00:19:21.763Z,18.40
2022-11-18T00:22:29.996Z,19.30
2022-11-18T00:25:36.789Z,19.80
2022-11-18T00:28:43.520Z,18.50
2022-11-18T00:31:49.916Z,18.90
2022-11-18T00:38:01.000Z,18.60
2022-11-18T00:41:09.548Z,19.50
2022-11-18T00:44:15.797Z,20.40
2022-11-18T00:47:22.068Z,19.30
2022-11-18T00:53:33.228Z,20.30
2022-11-18T00:59:44.189Z,17.70
2022-11-18T01:05:55.238Z,19.10
2022-11-18T01:09:01.547Z,19.30
2022-11-18T01:15:30.115Z,18.50
2022-11-18T01:21:41.140Z,17.40
2022-11-18T01:24:47.402Z,16.00
2022-11-18T01:27:53.720Z,16.90
2022-11-18T01:34:10.879Z,16.70
2022-11-18T01:40:22.205Z,17.50
2022-11-18T01:43:48.624Z,18.30
2022-11-18T01:46:54.945Z,15.80
2022-11-18T01:53:10.780Z,17.10
2022-11-18T01:56:20.249Z,17.40
2022-11-18T01:59:31.557Z,18.00
2022-11-18T02:02:39.920Z,17.30
2022-11-18T02:05:48.070Z,18.20
2022-11-18T02:08:55.987Z,16.20
2022-11-18T02:12:02.583Z,16.40
2022-11-18T02:15:11.059Z,17.50
2022-11-18T02:18:30.264Z,17.90
2022-11-18T02:21:49.739Z,18.30
2022-11-18T02:25:06.558Z,19.60
2022-11-18T02:28:40.474Z,18.40
2022-11-18T02:31:54.003Z,18.90
2022-11-18T02:35:08.267Z,18.60
2022-11-18T02:38:20.154Z,19.00
2022-11-18T02:41:29.994Z,18.70
2022-11-18T02:44:38.830Z,19.30
2022-11-18T02:47:47.570Z,17.90
2022-11-18T02:50:55.704Z,17.00
2022-11-18T02:54:05.521Z,18.30
2022-11-18T02:57:13.064Z,18.30
2022-11-18T03:00:20.559Z,17.80
2022-11-18T03:03:31.039Z,17.00
2022-11-18T03:06:41.117Z,18.00
2022-11-18T03:09:52.998Z,18.80
2022-11-18T03:13:10.603Z,17.60
2022-11-18T03:16:24.345Z,18.30
2022-11-18T03:19:40.904Z,17.10
2022-11-18T03:22:52.441Z,17.70
2022-11-18T03:26:03.597Z,17.10
2022-11-18T03:29:17.528Z,17.00
2022-11-18T03:32:29.419Z,17.70
2022-11-18T03:35:41.330Z,16.60
2022-11-18T03:38:52.893Z,15.70
2022-11-18T03:42:05.396Z,16.20
2022-11-18T03:45:18.740Z,16.20
2022-11-18T03:48:28.108Z,16.30
2022-11-18T03:51:39.401Z,17.70
2022-11-18T03:54:49.773Z,15.60
2022-11-18T03:58:02.073Z,18.10
2022-11-18T04:01:17.244Z,18.20
2022-11-18T04:04:24.677Z,18.30
2022-11-18T04:07:34.781Z,18.10
2022-11-18T04:10:47.225Z,19.90
2022-11-18T04:13:53.549Z,19.50
2022-11-18T04:20:04.535Z,19.90
2022-11-18T04:23:11.230Z,20.60
2022-11-18T04:26:18.529Z,21.40
2022-11-18T04:29:24.866Z,20.40
2022-11-18T04:35:35.754Z,20.60
2022-11-18T04:38:42.009Z,19.50
2022-11-18T04:45:05.601Z,16.60
2022-11-18T04:48:11.874Z,19.50
2022-11-18T04:54:23.772Z,22.00
2022-11-18T04:57:30.142Z,22.20
2022-11-18T05:03:45.080Z,20.00
2022-11-18T05:06:54.442Z,21.10
2022-11-18T05:10:00.814Z,21.90
2022-11-18T05:16:11.828Z,21.00
2022-11-18T05:19:18.626Z,21.90
2022-11-18T05:22:25.074Z,23.90
2022-11-18T05:28:36.185Z,21.80
2022-11-18T05:31:42.630Z,22.80
2022-11-18T05:34:48.888Z,22.20
2022-11-18T05:40:59.697Z,22.30
2022-11-18T05:47:11.291Z,23.80
2022-11-18T05:50:21.337Z,25.90
2022-11-18T05:53:28.326Z,24.70
2022-11-18T05:56:38.103Z,24.00
2022-11-18T05:59:44.450Z,25.80
2022-11-18T06:05:59.561Z,26.40
2022-11-18T06:09:09.485Z,24.70
2022-11-18T06:12:21.099Z,25.00
2022-11-18T06:15:31.542Z,25.00
2022-11-18T06:18:39.222Z,25.70
2022-11-18T06:21:46.320Z,24.00
2022-11-18T06:24:52.826Z,24.90
2022-11-18T06:28:01.979Z,24.70
2022-11-18T06:31:08.645Z,24.90
2022-11-18T06:34:15.655Z,23.50
2022-11-18T06:37:22.825Z,24.30
2022-11-18T06:40:34.280Z,23.20
2022-11-18T06:43:41.712Z,26.10
2022-11-18T06:46:57.211Z,26.50
2022-11-18T06:50:03.497Z,24.70
2022-11-18T06:56:16.220Z,25.40
2022-11-18T06:59:24.558Z,26.00
2022-11-18T07:02:30.978Z,22.30
2022-11-18T07:05:37.333Z,23.10
2022-11-18T07:11:49.298Z,23.10
2022-11-18T07:18:00.031Z,24.40
2022-11-18T07:21:08.505Z,26.00
2022-11-18T07:24:17.251Z,24.80
2022-11-18T07:27:23.574Z,23.90
2022-11-18T07:33:35.313Z,21.50
2022-11-18T07:36:41.517Z,18.90
2022-11-18T07:39:47.762Z,18.90
2022-11-18T07:42:55.014Z,18.30
2022-11-18T07:46:09.679Z,19.40
2022-11-18T07:49:16.272Z,17.60
2022-11-18T07:52:22.744Z,18.80
2022-11-18T07:58:38.960Z,17.90
2022-11-18T08:01:45.319Z,18.80
2022-11-18T08:04:51.746Z,18.00
2022-11-18T08:11:06.243Z,17.60
2022-11-18T08:14:12.510Z,16.70
2022-11-18T08:17:18.783Z,16.70
2022-11-18T08:23:38.847Z,17.40
2022-11-18T08:26:48.028Z,16.70
2022-11-18T08:32:59.841Z,16.90
2022-11-18T08:36:11.391Z,17.80
2022-11-18T08:39:17.914Z,16.30
2022-11-18T08:42:28.724Z,18.40
2022-11-18T08:45:40.050Z,16.60
2022-11-18T08:48:46.344Z,16.40
2022-11-18T08:54:57.227Z,17.00
2022-11-18T08:58:03.548Z,16.40
2022-11-18T09:04:15.646Z,16.30
2022-11-18T09:10:26.969Z,20.70
2022-11-18T09:13:53.656Z,16.40
2022-11-18T09:16:59.481Z,15.80
2022-11-18T09:23:10.354Z,16.40
2022-11-18T09:29:26.415Z,14.30
2022-11-18T09:32:33.808Z,14.60
2022-11-18T09:35:45.069Z,14.00
2022-11-18T09:38:53.239Z,14.10
2022-11-18T09:42:07.456Z,15.30
2022-11-18T09:45:25.520Z,14.60
2022-11-18T09:48:46.542Z,16.20
2022-11-18T09:51:56.066Z,13.50
2022-11-18T09:55:02.921Z,16.70
2022-11-18T09:58:16.791Z,16.00
2022-11-18T10:01:27.239Z,16.40
2022-11-18T10:04:34.074Z,16.40
2022-11-18T10:07:47.383Z,15.20
2022-11-18T10:11:02.269Z,15.90
2022-11-18T10:14:20.743Z,16.30
2022-11-18T10:17:41.855Z,16.20
2022-11-18T10:20:56.747Z,15.30
2022-11-18T10:24:09.805Z,15.90
2022-11-18T10:27:17.285Z,15.90
2022-11-18T10:30:25.108Z,16.00
2022-11-18T10:33:32.198Z,16.00
2022-11-18T10:36:38.737Z,17.20
2022-11-18T10:39:55.273Z,16.70
2022-11-18T10:43:01.560Z,18.00
2022-11-18T10:49:23.092Z,16.90
2022-11-18T10:55:34.538Z,17.10
2022-11-18T10:58:45.305Z,13.80
2022-11-18T11:02:09.456Z,14.20
2022-11-18T11:05:23.857Z,15.00
2022-11-18T11:08:36.996Z,15.00
2022-11-18T11:11:57.002Z,15.80
2022-11-18T11:15:06.695Z,14.90
2022-11-18T11:18:39.128Z,17.70
2022-11-18T11:21:45.469Z,16.20
2022-11-18T11:28:18.462Z,19.90
2022-11-18T11:31:32.537Z,19.40
2022-11-18T11:34:45.536Z,17.10
2022-11-18T11:37:57.275Z,16.30
2022-11-18T11:41:15.436Z,17.20
2022-11-18T11:44:46.415Z,18.10
2022-11-18T11:48:09.913Z,15.80
2022-11-18T11:51:25.563Z,17.00
2022-11-18T11:54:53.102Z,17.00
2022-11-18T11:58:17.866Z,16.40
2022-11-18T12:01:33.204Z,17.00
2022-11-18T12:04:48.032Z,19.30
2022-11-18T12:07:57.805Z,16.60
2022-11-18T12:11:15.345Z,17.40
2022-11-18T12:14:35.775Z,18.00
2022-11-18T12:17:53.836Z,22.70
2022-11-18T12:21:00.119Z,21.50
2022-11-18T12:28:00.614Z,16.20
2022-11-18T12:31:33.635Z,15.80
2022-11-18T12:34:43.378Z,18.40
2022-11-18T12:38:04.246Z,16.90
2022-11-18T12:42:09.371Z,19.80
2022-11-18T12:45:51.469Z,20.40
2022-11-18T12:48:58.090Z,18.90
2022-11-18T12:52:06.014Z,19.90
2022-11-18T12:55:19.611Z,20.60
2022-11-18T12:58:29.598Z,26.50
2022-11-18T13:01:36.782Z,26.80
2022-11-18T13:04:46.678Z,21.40
2022-11-18T13:08:17.529Z,21.50
2022-11-18T13:11:42.187Z,25.80
2022-11-18T13:15:06.140Z,22.30
2022-11-18T13:18:17.012Z,22.60
2022-11-18T13:21:47.233Z,21.80
2022-11-18T13:24:54.353Z,22.30
2022-11-18T13:28:11.845Z,22.10
2022-11-18T13:31:24.439Z,22.20
2022-11-18T13:34:32.270Z,21.50
2022-11-18T13:37:49.149Z,23.10
2022-11-18T13:41:13.209Z,25.30
2022-11-18T13:44:24.320Z,21.00
2022-11-18T13:47:41.604Z,21.60
2022-11-18T13:50:54.088Z,22.20
2022-11-18T13:54:00.612Z,20.30
2022-11-18T13:57:07.059Z,22.50
2022-11-18T14:00:24.757Z,22.40
2022-11-18T14:03:35.202Z,22.60
2022-11-18T14:06:42.998Z,24.60
2022-11-18T14:09:57.701Z,22.30
2022-11-18T14:13:05.380Z,22.50
2022-11-18T14:16:34.035Z,24.00
2022-11-18T14:19:42.073Z,25.40
2022-11-18T14:22:52.130Z,25.00
2022-11-18T14:25:59.872Z,25.80
2022-11-18T14:29:21.453Z,25.40
2022-11-18T14:32:27.829Z,28.30
2022-11-18T14:35:35.059Z,28.90
2022-11-18T14:42:16.827Z,29.10
2022-11-18T14:45:24.270Z,29.50
2022-11-18T14:48:32.766Z,27.70
2022-11-18T14:51:39.251Z,28.60
2022-11-18T14:57:50.194Z,27.50
2022-11-18T15:04:01.713Z,28.40
2022-11-18T15:07:08.261Z,30.70
2022-11-18T15:10:17.230Z,28.50
2022-11-18T15:13:23.432Z,31.60
2022-11-18T15:16:31.691Z,32.20
2022-11-18T15:19:38.414Z,32.60
2022-11-18T15:22:44.808Z,33.10
2022-11-18T15:25:51.103Z,31.40
2022-11-18T15:32:05.382Z,35.10
2022-11-18T15:35:14.336Z,34.30
2022-11-18T15:38:20.614Z,34.00
2022-11-18T15:44:33.196Z,31.60
2022-11-18T15:47:39.437Z,33.30
2022-11-18T15:50:45.957Z,30.70
2022-11-18T15:53:52.519Z,30.40
2022-11-18T15:56:58.837Z,31.40
2022-11-18T16:03:10.542Z,28.40
2022-11-18T16:06:16.917Z,32.20
2022-11-18T16:12:45.973Z,32.50
2022-11-18T16:15:52.225Z,31.30
2022-11-18T16:22:03.407Z,34.70
2022-11-18T16:25:10.801Z,35.70
2022-11-18T16:28:17.274Z,34.40
2022-11-18T16:31:43.749Z,35.40
2022-11-18T16:34:50.222Z,35.20
2022-11-18T16:37:56.668Z,35.70
2022-11-18T16:41:23.124Z,43.50
2022-11-18T16:44:29.424Z,36.50
2022-11-18T16:50:40.741Z,37.80
2022-11-18T16:53:50.593Z,45.30
2022-11-18T16:56:58.190Z,38.40
2022-11-18T17:00:04.995Z,36.40
2022-11-18T17:03:11.469Z,35.60
2022-11-18T17:06:17.693Z,38.60
2022-11-18T17:09:25.217Z,41.00
2022-11-18T17:12:31.819Z,38.90
2022-11-18T17:15:39.717Z,41.90
2022-11-18T17:18:46.578Z,38.00
2022-11-18T17:21:53.421Z,40.40
2022-11-18T17:25:04.917Z,39.70
2022-11-18T17:28:11.835Z,39.00
2022-11-18T17:31:20.256Z,44.90
2022-11-18T17:34:26.593Z,42.10
2022-11-18T17:40:38.029Z,39.70
2022-11-18T17:46:49.403Z,43.70
2022-11-18T17:49:55.629Z,40.10
2022-11-18T17:53:01.931Z,42.60
2022-11-18T17:59:17.468Z,42.70
2022-11-18T18:02:23.760Z,39.50
2022-11-18T18:05:30.315Z,42.20
2022-11-18T18:08:37.092Z,38.90
2022-11-18T18:11:43.581Z,37.90
2022-11-18T18:14:49.854Z,41.10
2022-11-18T18:21:06.419Z,40.40
2022-11-18T18:24:17.576Z,44.40
2022-11-18T18:27:24.222Z,42.10
2022-11-18T18:30:30.491Z,47.40
2022-11-18T18:39:47.898Z,41.00
2022-11-18T18:42:54.113Z,41.10
2022-11-18T18:46:21.484Z,43.70
2022-11-18T18:49:27.806Z,43.90
2022-11-18T18:55:44.682Z,39.90
2022-11-18T18:58:51.713Z,41.70
2022-11-18T19:01:58.030Z,40.30
2022-11-18T19:08:09.486Z,40.70
2022-11-18T19:11:30.295Z,38.40
2022-11-18T19:14:37.741Z,39.00
2022-11-18T19:17:44.117Z,44.90
2022-11-18T19:20:50.591Z,44.80
2022-11-18T19:23:57.009Z,44.40
2022-11-18T19:27:03.648Z,45.00
2022-11-18T19:30:12.736Z,42.90
2022-11-18T19:33:19.146Z,44.60
2022-11-18T19:36:25.596Z,44.70
2022-11-18T19:39:32.053Z,40.70
2022-11-18T19:42:39.657Z,41.00
2022-11-18T19:45:53.374Z,43.90
2022-11-18T19:48:59.925Z,40.10
2022-11-18T19:52:06.261Z,46.10
2022-11-18T19:58:17.414Z,42.70
2022-11-18T20:01:25.486Z,37.10
2022-11-18T20:04:31.859Z,40.10
2022-11-18T20:10:42.787Z,44.90
2022-11-18T20:16:54.077Z,38.70
2022-11-18T20:20:00.412Z,39.10
2022-11-18T20:26:14.111Z,37.70
2022-11-18T20:29:21.148Z,35.70
2022-11-18T20:32:27.850Z,36.80
2022-11-18T20:35:34.179Z,35.00
2022-11-18T20:42:06.681Z,36.70
2022-11-18T20:45:13.956Z,37.10
2022-11-18T20:48:20.248Z,36.40
2022-11-18T20:54:31.664Z,36.10
2022-11-18T21:00:42.658Z,36.30
2022-11-18T21:03:52.761Z,36.70
2022-11-18T21:07:01.880Z,36.50
2022-11-18T21:10:09.950Z,34.40
2022-11-18T21:13:33.816Z,32.10
2022-11-18T21:16:40.997Z,37.30
2022-11-18T21:19:48.669Z,35.10
2022-11-18T21:22:55.074Z,37.20
2022-11-18T21:29:07.380Z,35.40
2022-11-18T21:32:13.841Z,36.70
2022-11-18T21:35:20.125Z,37.30
2022-11-18T21:41:31.689Z,33.80
2022-11-18T21:44:37.974Z,33.00
2022-11-18T21:50:48.809Z,30.00
2022-11-18T21:53:55.548Z,29.60
2022-11-18T21:57:02.099Z,29.80
2022-11-18T22:00:10.909Z,27.00
2022-11-18T22:03:17.250Z,28.50
2022-11-18T22:09:34.619Z,28.80
2022-11-18T22:12:42.757Z,29.80
2022-11-18T22:15:49.174Z,30.50
2022-11-18T22:19:02.570Z,30.20
2022-11-18T22:25:16.254Z,26.70
2022-11-18T22:28:22.591Z,28.40
2022-11-18T22:34:34.506Z,30.80
2022-11-18T22:40:45.329Z,27.70
2022-11-18T22:43:51.603Z,29.20
2022-11-18T22:50:02.510Z,32.40
2022-11-18T22:56:15.408Z,28.70
2022-11-18T22:59:22.399Z,28.20
2022-11-18T23:02:28.286Z,26.20
2022-11-18T23:05:33.900Z,27.90
2022-11-18T23:08:41.101Z,26.10
2022-11-18T23:12:04.400Z,27.10
2022-11-18T23:15:11.483Z,26.20
2022-11-18T23:18:17.127Z,26.60
2022-11-18T23:21:23.907Z,18.90
2022-11-18T23:24:29.479Z,26.90
2022-11-18T23:27:35.107Z,25.40
2022-11-18T23:30:40.758Z,24.60
2022-11-18T23:33:46.601Z,23.70
2022-11-18T23:36:52.266Z,25.90
2022-11-18T23:39:57.859Z,26.80
2022-11-18T23:43:03.457Z,25.90
2022-11-18T23:46:10.633Z,26.10
2022-11-18T23:49:17.138Z,25.40
2022-11-18T23:52:23.085Z,27.70
2022-11-18T23:55:28.652Z,29.50
2022-11-18T23:58:34.287Z,21.20
